• Join FlightAware (Why Join?)
  • Login
  • US Flag 
05:38PM EDT


 

Airport Tracker/Info


-or-


 

Live Flight TrackerFlight Track Log ✈ FFT309 ✈ 06-Jun-2012 ✈ KDEN - KGEG

Flight Track Log - Related Links

Times and Time Zones

All times are in EDT time to prevent confusion due to time zone crossing. See the FFT309 flight status page for this flight to view local times or setup timezone preferences in your user account.

Time Position Orientation Groundspeed Altitude Reporting Facility
EDT Latitude Longitude Course Direction KTS MPH feet Rate Location/Type
10:33AM 39.9333 -104.7000 346° North 192 221 7,100  Level Denver TRACON
10:38AM 40.3500 -104.8333 335° Northwest 361 415 16,800 1,920 Climbing Denver TRACON
10:39AM 40.4411 -104.8892 337° Northwest 389 448 18,600 2,160 Climbing Denver Center
10:40AM 40.5483 -104.9489 337° Northwest 389 448 21,400 2,160 Climbing Denver Center
10:41AM 40.6481 -105.0056 338° Northwest 394 453 23,100 1,740 Climbing Denver Center
10:42AM 40.7536 -105.0631 321° Northwest 402 463 25,100 1,740 Climbing Denver Center
10:43AM 40.8411 -105.1572 320° Northwest 412 474 26,800 1,560 Climbing Denver Center
10:44AM 40.9447 -105.2708 320° Northwest 414 476 28,400 1,140 Climbing Denver Center
10:45AM 41.0303 -105.3672 319° Northwest 430 495 29,200 1,020 Climbing Denver Center
10:46AM 41.1369 -105.4903 319° Northwest 448 516 30,600 1,320 Climbing Denver Center
10:47AM 41.2286 -105.5961 319° Northwest 454 522 32,000 1,680 Climbing Denver Center
10:48AM 41.3342 -105.7172 314° West 449 517 34,100 1,680 Climbing Denver Center
10:49AM 41.4128 -105.8242 314° West 429 494 35,600 1,260 Climbing Denver Center
10:50AM 41.5044 -105.9506 314° West 424 488 36,800 960 Climbing Denver Center
10:51AM 41.5811 -106.0567 314° West 419 482 37,700 540 Climbing Denver Center
10:52AM 41.6711 -106.1800 313° West 415 478 38,000 120 Climbing Denver Center
10:53AM 41.7486 -106.2925 310° West 423 487 38,000  Level Denver Center
10:54AM 41.8342 -106.4303 310° West 427 491 38,000  Level Denver Center
10:56AM 41.9108 -106.5536 309° West 428 493 38,000  Level Denver Center
10:56AM 41.9664 -106.6453 310° West 428 493 38,000  Level Salt Lake Center
10:57AM 42.0428 -106.7686 310° West 429 494 38,100  Climbing Salt Lake Center
10:58AM 42.1286 -106.9050 310° West 428 493 38,000 -60 Descending Salt Lake Center
10:59AM 42.2000 -107.0203 310° West 425 489 38,000  Level Salt Lake Center
11:00AM 42.2828 -107.1547 309° West 421 484 38,000  Level Salt Lake Center
11:01AM 42.3519 -107.2694 309° West 417 480 38,000  Level Salt Lake Center
11:03AM 42.4353 -107.4075 310° West 422 486 38,000  Level Salt Lake Center
11:04AM 42.5086 -107.5269 309° West 428 493 38,100  Climbing Salt Lake Center
11:05AM 42.5922 -107.6667 309° West 428 493 38,000 -60 Descending Salt Lake Center
11:06AM 42.6639 -107.7867 309° West 429 494 38,000  Level Salt Lake Center
11:07AM 42.7464 -107.9264 309° West 426 490 38,000  Level Salt Lake Center
11:08AM 42.8186 -108.0464 309° West 428 493 38,000  Level Salt Lake Center
11:09AM 42.9022 -108.1875 308° West 429 494 38,100  Climbing Salt Lake Center
11:10AM 42.9842 -108.3292 309° West 431 496 38,000 -60 Descending Salt Lake Center
11:11AM 43.0553 -108.4511 309° West 430 495 38,000  Level Salt Lake Center
11:12AM 43.1389 -108.5914 309° West 428 493 38,000  Level Salt Lake Center
11:13AM 43.2100 -108.7136 308° West 428 493 38,000  Level Salt Lake Center
11:14AM 43.2936 -108.8600 309° West 432 497 38,000  Level Salt Lake Center
11:15AM 43.3661 -108.9839 308° West 434 499 38,100  Climbing Salt Lake Center
11:16AM 43.4483 -109.1300 308° West 433 498 38,000 -60 Descending Salt Lake Center
11:17AM 43.5197 -109.2539 308° West 432 497 38,000  Level Salt Lake Center
11:18AM 43.6031 -109.4008 308° West 434 499 38,000  Level Salt Lake Center
11:19AM 43.6736 -109.5242 308° West 436 502 38,000  Level Salt Lake Center
11:20AM 43.7600 -109.6756 307° West 445 512 38,100  Climbing Salt Lake Center
11:21AM 43.8325 -109.8072 308° West 448 516 38,100  Level Salt Lake Center
11:22AM 43.9189 -109.9603 308° West 450 518 38,100 -60 Level Salt Lake Center
11:23AM 43.9925 -110.0914 307° West 450 518 38,000 -60 Descending Salt Lake Center
11:24AM 44.0772 -110.2456 307° West 450 518 38,000  Level Salt Lake Center
11:25AM 44.1614 -110.3989 307° West 448 516 38,000  Level Salt Lake Center
11:26AM 44.2331 -110.5297 307° West 445 512 38,000  Level Salt Lake Center
11:28AM 44.3142 -110.6811 307° West 439 505 38,000  Level Salt Lake Center
11:29AM 44.3842 -110.8111 307° West 438 504 38,000  Level Salt Lake Center
11:30AM 44.4689 -110.9664 307° West 448 516 38,000  Level Salt Lake Center
11:31AM 44.5414 -111.1008 307° West 452 520 38,000  Level Salt Lake Center
11:32AM 44.6233 -111.2561 307° West 449 517 38,000  Level Salt Lake Center
11:33AM 44.7050 -111.4103 307° West 450 518 38,100  Climbing Salt Lake Center
11:34AM 44.7764 -111.5453 307° West 454 522 38,100 -60 Level Salt Lake Center
11:35AM 44.8597 -111.7036 307° West 453 521 38,000 -60 Descending Salt Lake Center
11:36AM 44.9303 -111.8358 306° West 447 514 38,000  Level Salt Lake Center
11:37AM 45.0111 -111.9936 306° West 445 512 38,000  Level Salt Lake Center
11:38AM 45.0822 -112.1314 306° West 450 518 38,100  Climbing Salt Lake Center
11:39AM 45.1658 -112.2922 306° West 453 521 38,000 -60 Descending Salt Lake Center
11:40AM 45.2378 -112.4322 306° West 457 526 38,000  Level Salt Lake Center
11:41AM 45.3206 -112.5964 306° West 458 527 38,100  Climbing Salt Lake Center
11:42AM 45.3933 -112.7417 306° West 457 526 38,000 -60 Descending Salt Lake Center
11:43AM 45.4681 -112.8881 305° West 456 525 38,000 -60 Level Salt Lake Center
11:44AM 45.5414 -113.0353 306° West 455 524 37,900  Descending Salt Lake Center
11:45AM 45.6300 -113.2128 305° West 456 525 38,000  Climbing Salt Lake Center
11:46AM 45.7044 -113.3653 306° West 462 532 38,000  Level Salt Lake Center
11:47AM 45.7792 -113.5147 305° West 463 533 38,000  Level Salt Lake Center
11:48AM 45.8472 -113.6533 305° West 460 529 38,000 -60 Level Salt Lake Center
11:49AM 45.9353 -113.8325 305° West 459 528 37,900 -60 Descending Salt Lake Center
11:50AM 46.0072 -113.9803 305° West 455 524 37,900  Level Salt Lake Center
11:51AM 46.0781 -114.1283 305° West 451 519 37,900  Level Salt Lake Center
11:53AM 46.1500 -114.2789 305° West 455 524 38,000  Climbing Salt Lake Center
11:54AM 46.2225 -114.4314 305° West 458 527 38,000  Level Salt Lake Center
11:55AM 46.3103 -114.6150 304° West 461 531 38,000  Level Salt Lake Center
11:55AM 46.3392 -114.6778 304° West 462 532 38,000  Level Seattle Center
11:56AM 46.4119 -114.8336 305° West 465 535 38,000  Level Seattle Center
11:57AM 46.4561 -114.9250 303° West 465 535 38,000  Level Salt Lake Center
11:57AM 46.4989 -115.0206 304° West 465 535 38,000 -120 Level Seattle Center
11:58AM 46.5672 -115.1661 304° West 465 535 37,900 -360 Descending Seattle Center
11:59AM 46.6108 -115.2606 304° West 466 536 37,500 -2,580 Descending Salt Lake Center
12:00PM 46.6872 -115.4278 304° West 469 540 33,900 -3,360 Descending Salt Lake Center
12:01PM 46.7617 -115.5911 304° West 478 550 30,600 -2,820 Descending Salt Lake Center
12:02PM 46.8347 -115.7500 303° West 474 545 28,100 -2,340 Descending Salt Lake Center
12:03PM 46.9003 -115.8956 303° West 438 504 25,800 -2,340 Descending Salt Lake Center
12:04PM 46.9694 -116.0514 304° West 406 467 23,300 -2,100 Descending Salt Lake Center
12:05PM 47.0283 -116.1817 303° West 392 451 21,500 -1,740 Descending Salt Lake Center
12:06PM 47.0822 -116.3033 303° West 367 422 19,700 -1,620 Descending Salt Lake Center
12:07PM 47.1544 -116.4653 304° West 344 396 17,600 -1,560 Descending Seattle Center
12:08PM 47.2047 -116.5764 304° West 331 381 16,000 -1,560 Descending Seattle Center
12:09PM 47.2533 -116.6842 308° West 320 368 14,500 -1,500 Descending Seattle Center
12:11PM 47.3058 -116.7819 325° Northwest 306 352 13,000 -1,320 Descending Seattle Center
12:12PM 47.3764 -116.8550 325° Northwest 310 357 11,900 -1,320 Descending Seattle Center
12:13PM 47.4578 -116.9403 327° Northwest 298 343 10,300 -1,620 Descending Seattle Center
12:14PM 47.5189 -117.0000 329° Northwest 262 302 8,700 -1,620 Descending Seattle Center
12:15PM 47.5831 -117.0578 329° Northwest 269 310 7,100 -840 Descending Seattle Center
12:16PM 47.6414 -117.1097 297° West 238 274 7,000 -660 Descending Seattle Center
12:17PM 47.6708 -117.1944 298° West 215 247 5,800 -960 Descending Seattle Center
12:18PM 47.6981 -117.2700 299° West 210 242 5,100 -720 Descending Seattle Center
12:19PM 47.7253 -117.3436 247° West 206 237 4,400 -540 Descending Seattle Center
12:20PM 47.7089 -117.4017 226° Southwest 151 174 4,000 -300 Descending Seattle Center
12:21PM 47.6817 -117.4439 225° Southwest 140 161 3,800 -420 Descending Seattle Center
12:22PM 47.6575 -117.4797 226° Southwest 127 146 3,200 -660 Descending Seattle Center
12:23PM 47.6339 -117.5156 226° Southwest 124 143 2,500 -420 Descending Seattle Center
12:24PM 47.6192 -117.5381 298° West 91 105 2,400 -60 Descending Seattle Center
12:25PM 47.6203 -117.5411 298° West 46 53 2,400  Level Seattle Center